Time;durP1;ratioP1;P1;durP2;ratioP2;P2;SDS_P1;SDS_P2;PMS_P1;PMS_P2;Temp;Humidity;BMP_temperature;BMP_pressure;BME280_temperature;BME280_humidity;BME280_pressure;Samples;Min_cycle;Max_cycle;Signal;HPM_P1;HPM_P2
2022/03/09 00:00:54;;;;;;;14.53;8.70;;;;;;;;;;4924846;29;20537;-87
2022/03/09 00:03:59;;;;;;;17.97;9.30;;;;;;;;;;4913872;29;20544;-87
2022/03/09 00:07:04;;;;;;;11.77;7.60;;;;;;;;;;4924909;29;20541;-87
2022/03/09 00:10:08;;;;;;;15.13;7.83;;;;;;;;;;4913395;28;20628;-87
2022/03/09 00:13:12;;;;;;;12.70;7.27;;;;;;;;;;4924370;29;20548;-87
2022/03/09 00:16:17;;;;;;;13.50;7.00;;;;;;;;;;4914448;29;20643;-86
2022/03/09 00:19:22;;;;;;;12.67;7.57;;;;;;;;;;4925125;29;20681;-87
2022/03/09 00:22:27;;;;;;;13.30;7.30;;;;;;;;;;4928832;29;20604;-87
2022/03/09 00:25:31;;;;;;;11.87;7.60;;;;;;;;;;4918806;29;20588;-87
2022/03/09 00:28:35;;;;;;;12.70;7.57;;;;;;;;;;4917758;29;21047;-87
2022/03/09 00:31:39;;;;;;;14.40;7.90;;;;;;;;;;4913373;29;20584;-86
2022/03/09 00:34:43;;;;;;;13.20;8.17;;;;;;;;;;4924276;29;20607;-87
2022/03/09 00:37:47;;;;;;;13.33;7.20;;;;;;;;;;4923958;29;21071;-87
2022/03/09 00:40:51;;;;;;;11.70;6.73;;;;;;;;;;4924213;29;20580;-86
2022/03/09 00:43:56;;;;;;;13.53;7.07;;;;;;;;;;4935277;29;20924;-87
2022/03/09 00:47:00;;;;;;;11.47;6.80;;;;;;;;;;4923951;29;21174;-87
2022/03/09 00:50:05;;;;;;;12.70;7.23;;;;;;;;;;5005772;23;20673;-87
2022/03/09 00:53:10;;;;;;;13.07;8.00;;;;;;;;;;5025099;28;20617;-86
2022/03/09 00:56:18;;;;;;;10.40;7.07;;;;;;;;;;5039999;28;20634;-86
2022/03/09 00:59:23;;;;;;;10.93;6.63;;;;;;;;;;5046015;28;20697;-86
2022/03/09 01:02:27;;;;;;;10.33;6.97;;;;;;;;;;5030973;28;20579;-86
2022/03/09 01:05:31;;;;;;;11.57;7.13;;;;;;;;;;5031352;28;20590;-88
2022/03/09 01:08:36;;;;;;;10.60;7.47;;;;;;;;;;5030957;28;20535;-87
2022/03/09 01:11:40;;;;;;;12.43;7.03;;;;;;;;;;5020063;28;20607;-85
2022/03/09 01:14:44;;;;;;;11.03;6.80;;;;;;;;;;5019451;28;20631;-86
2022/03/09 01:17:51;;;;;;;13.00;6.00;;;;;;;;;;5019401;28;20590;-86
2022/03/09 01:20:55;;;;;;;11.60;7.53;;;;;;;;;;5008465;28;20646;-86
2022/03/09 01:23:59;;;;;;;11.00;6.53;;;;;;;;;;5019971;28;21175;-85
2022/03/09 01:27:03;;;;;;;10.03;6.40;;;;;;;;;;5029099;28;20575;-86
2022/03/09 01:30:08;;;;;;;13.87;7.30;;;;;;;;;;5030818;28;20638;-86
2022/03/09 01:33:12;;;;;;;12.87;6.97;;;;;;;;;;5042643;28;20622;-86
2022/03/09 01:36:18;;;;;;;10.40;6.63;;;;;;;;;;5019256;28;20650;-85
2022/03/09 01:39:22;;;;;;;11.10;6.90;;;;;;;;;;5030362;28;20626;-86
2022/03/09 01:42:27;;;;;;;11.00;6.70;;;;;;;;;;5015022;28;20655;-86
2022/03/09 01:45:35;;;;;;;9.50;6.07;;;;;;;;;;5041660;28;20591;-86
2022/03/09 01:48:39;;;;;;;11.03;6.90;;;;;;;;;;5011246;28;20575;-87
2022/03/09 01:51:46;;;;;;;12.07;6.90;;;;;;;;;;5030508;28;20578;-85
2022/03/09 01:54:52;;;;;;;15.00;8.03;;;;;;;;;;5031474;28;20535;-85
2022/03/09 01:57:56;;;;;;;11.13;6.43;;;;;;;;;;5019319;28;20606;-86
2022/03/09 02:01:05;;;;;;;13.63;6.83;;;;;;;;;;5019129;28;21228;-86
2022/03/09 02:04:13;;;;;;;10.00;6.97;;;;;;;;;;5030126;28;20606;-86
2022/03/09 02:07:18;;;;;;;11.83;6.70;;;;;;;;;;5019269;28;20535;-87
2022/03/09 02:10:22;;;;;;;11.23;6.50;;;;;;;;;;5019605;28;20629;-85
2022/03/09 02:13:26;;;;;;;9.60;6.70;;;;;;;;;;5018549;28;20583;-86
2022/03/09 02:16:31;;;;;;;11.37;6.53;;;;;;;;;;5028711;28;20665;-87
2022/03/09 02:19:35;;;;;;;10.90;7.20;;;;;;;;;;5038962;28;21222;-85
2022/03/09 02:22:41;;;;;;;12.73;7.20;;;;;;;;;;5038724;28;20596;-86
2022/03/09 02:25:45;;;;;;;11.30;6.27;;;;;;;;;;5031795;28;20587;-87
2022/03/09 02:29:14;;;;;;;11.70;6.80;;;;;;;;;;5019723;28;20609;-86
2022/03/09 02:32:27;;;;;;;13.40;6.23;;;;;;;;;;5030276;28;21163;-86
2022/03/09 02:35:32;;;;;;;11.27;6.43;;;;;;;;;;5029426;28;20665;-87
2022/03/09 02:38:37;;;;;;;11.10;6.60;;;;;;;;;;5018730;28;20558;-87
2022/03/09 02:41:51;;;;;;;10.47;6.73;;;;;;;;;;5018722;28;20606;-85
2022/03/09 02:44:55;;;;;;;11.20;6.60;;;;;;;;;;5029952;28;20606;-87
2022/03/09 02:47:59;;;;;;;10.73;6.90;;;;;;;;;;5016622;28;20597;-86
2022/03/09 02:51:03;;;;;;;11.17;6.50;;;;;;;;;;5018349;28;20669;-85
2022/03/09 02:54:09;;;;;;;12.10;7.33;;;;;;;;;;5030128;28;20546;-86
2022/03/09 02:57:15;;;;;;;11.83;6.93;;;;;;;;;;5013733;28;20645;-86
2022/03/09 03:00:24;;;;;;;15.37;6.33;;;;;;;;;;5017285;28;20649;-87
2022/03/09 03:03:35;;;;;;;11.50;6.93;;;;;;;;;;5018334;28;20563;-87
2022/03/09 03:06:53;;;;;;;12.57;6.93;;;;;;;;;;5029278;28;20591;-87
2022/03/09 03:09:57;;;;;;;12.50;7.30;;;;;;;;;;5017998;28;20653;-87
2022/03/09 03:16:32;;;;;;;11.23;7.20;;;;;;;;;;5043151;28;20642;-87
2022/03/09 03:19:36;;;;;;;10.60;7.30;;;;;;;;;;5029302;28;20615;-87
2022/03/09 03:22:40;;;;;;;9.97;6.60;;;;;;;;;;5039919;28;20633;-87
2022/03/09 03:25:44;;;;;;;11.07;6.70;;;;;;;;;;5029277;28;21152;-86
2022/03/09 03:28:48;;;;;;;10.07;7.17;;;;;;;;;;5040522;28;20597;-87
2022/03/09 03:31:52;;;;;;;13.10;8.50;;;;;;;;;;5047267;28;20598;-87
2022/03/09 03:34:56;;;;;;;13.23;8.23;;;;;;;;;;5043782;28;20597;-88
2022/03/09 03:38:01;;;;;;;11.83;7.50;;;;;;;;;;5031438;28;20953;-87
2022/03/09 03:41:05;;;;;;;13.30;7.53;;;;;;;;;;5021240;28;20653;-87
2022/03/09 03:44:09;;;;;;;12.63;7.87;;;;;;;;;;5032648;28;20566;-87
2022/03/09 03:47:13;;;;;;;13.43;7.13;;;;;;;;;;5032542;28;20555;-87
2022/03/09 03:50:18;;;;;;;12.00;7.10;;;;;;;;;;5032451;28;20640;-87
2022/03/09 03:53:23;;;;;;;12.87;7.87;;;;;;;;;;5021757;28;20552;-87
2022/03/09 03:56:27;;;;;;;10.40;6.83;;;;;;;;;;5021277;28;20946;-87
2022/03/09 03:59:32;;;;;;;14.73;7.53;;;;;;;;;;5021342;28;20641;-88
2022/03/09 04:02:36;;;;;;;11.60;7.50;;;;;;;;;;5021249;28;20547;-88
2022/03/09 04:05:40;;;;;;;13.83;7.80;;;;;;;;;;5021252;28;20553;-87
2022/03/09 04:08:44;;;;;;;11.97;7.20;;;;;;;;;;5021191;28;20546;-87
2022/03/09 04:11:51;;;;;;;13.80;7.27;;;;;;;;;;5032887;28;20558;-87
2022/03/09 04:15:00;;;;;;;11.17;6.90;;;;;;;;;;5043630;28;20546;-87
2022/03/09 04:18:04;;;;;;;15.77;7.90;;;;;;;;;;5020933;28;20938;-87
2022/03/09 04:21:09;;;;;;;11.77;7.63;;;;;;;;;;5043323;28;20625;-87
2022/03/09 04:24:13;;;;;;;11.67;7.53;;;;;;;;;;5031874;28;20610;-87
2022/03/09 04:27:18;;;;;;;12.57;7.73;;;;;;;;;;5023555;28;20614;-86
2022/03/09 04:30:32;;;;;;;10.97;6.77;;;;;;;;;;5011852;28;20658;-87
2022/03/09 04:33:36;;;;;;;10.63;6.80;;;;;;;;;;5026112;28;20596;-87
2022/03/09 04:36:40;;;;;;;13.93;7.53;;;;;;;;;;5020388;28;20966;-87
2022/03/09 04:39:53;;;;;;;11.00;6.87;;;;;;;;;;5031303;28;21260;-87
2022/03/09 04:42:59;;;;;;;11.37;7.53;;;;;;;;;;5007004;28;20599;-87
2022/03/09 04:46:03;;;;;;;9.63;6.87;;;;;;;;;;5019705;28;20590;-87
2022/03/09 04:49:07;;;;;;;12.37;7.47;;;;;;;;;;5031650;28;20633;-87
2022/03/09 04:52:12;;;;;;;16.25;7.75;;;;;;;;;;5031098;28;20599;-87
2022/03/09 04:55:16;;;;;;;15.10;7.73;;;;;;;;;;5019981;28;20194;-86
2022/03/09 04:58:21;;;;;;;11.63;6.73;;;;;;;;;;5013217;28;20570;-86
2022/03/09 05:01:28;;;;;;;15.05;7.88;;;;;;;;;;5021713;28;20584;-86
2022/03/09 05:04:32;;;;;;;12.00;7.00;;;;;;;;;;5019632;28;20553;-87
2022/03/09 05:07:42;;;;;;;13.00;7.97;;;;;;;;;;5011411;28;20595;-87
2022/03/09 05:10:53;;;;;;;12.20;6.95;;;;;;;;;;5021812;28;20653;-86
2022/03/09 05:13:57;;;;;;;16.63;8.03;;;;;;;;;;5006132;28;20203;-86
2022/03/09 05:20:33;;;;;;;13.90;7.22;;;;;;;;;;5031103;28;20633;-86
2022/03/09 05:23:40;;;;;;;10.88;7.07;;;;;;;;;;5020516;28;20187;-86
2022/03/09 05:26:51;;;;;;;12.30;7.07;;;;;;;;;;5019429;28;20217;-86
2022/03/09 05:29:55;;;;;;;16.33;8.43;;;;;;;;;;5008206;28;21032;-86
2022/03/09 05:33:00;;;;;;;10.90;6.88;;;;;;;;;;5030504;28;20191;-87
2022/03/09 05:36:05;;;;;;;11.33;6.70;;;;;;;;;;5007635;28;20219;-87
2022/03/09 05:39:09;;;;;;;13.13;7.63;;;;;;;;;;5018768;28;20653;-87
2022/03/09 05:42:19;;;;;;;13.38;7.25;;;;;;;;;;5030458;28;20218;-86
2022/03/09 05:45:32;;;;;;;13.20;7.47;;;;;;;;;;5014834;28;20209;-86
2022/03/09 05:48:38;;;;;;;13.07;7.87;;;;;;;;;;5021167;28;20539;-85
2022/03/09 05:51:41;;;;;;;12.05;7.38;;;;;;;;;;5042753;28;20610;-85
2022/03/09 05:54:46;;;;;;;13.37;7.67;;;;;;;;;;5019593;28;20529;-86
2022/03/09 05:57:51;;;;;;;13.07;7.28;;;;;;;;;;5008167;28;21223;-85
2022/03/09 06:00:57;;;;;;;14.98;7.45;;;;;;;;;;5031090;28;20220;-86
2022/03/09 06:04:14;;;;;;;12.10;7.60;;;;;;;;;;5040929;28;20196;-86
2022/03/09 06:07:18;;;;;;;14.40;8.37;;;;;;;;;;5020838;28;20185;-86
2022/03/09 06:14:17;;;;;;;20.10;8.47;;;;;;;;;;5041040;28;21176;-87
2022/03/09 06:17:22;;;;;;;13.73;7.97;;;;;;;;;;5011254;28;20606;-85
2022/03/09 06:20:26;;;;;;;13.43;8.40;;;;;;;;;;5041352;28;20657;-86
2022/03/09 06:23:32;;;;;;;14.03;7.93;;;;;;;;;;5010217;28;20545;-86
2022/03/09 06:26:42;;;;;;;15.73;7.70;;;;;;;;;;5022926;28;21202;-85
2022/03/09 06:29:49;;;;;;;10.00;7.63;;;;;;;;;;5040961;28;21009;-86
2022/03/09 06:33:04;;;;;;;11.73;7.90;;;;;;;;;;5030028;28;20552;-86
2022/03/09 06:36:12;;;;;;;14.80;7.70;;;;;;;;;;5029669;28;20614;-86
2022/03/09 06:39:16;;;;;;;12.43;7.63;;;;;;;;;;5041626;28;20653;-85
2022/03/09 06:42:25;;;;;;;10.97;7.07;;;;;;;;;;4998580;28;20618;-86
2022/03/09 06:45:32;;;;;;;15.87;8.93;;;;;;;;;;5022429;28;20555;-85
2022/03/09 06:48:48;;;;;;;19.77;10.30;;;;;;;;;;5022510;28;20536;-87
2022/03/09 06:51:55;;;;;;;14.47;9.17;;;;;;;;;;5033448;28;21012;-86
2022/03/09 06:55:07;;;;;;;16.47;9.10;;;;;;;;;;5040558;28;20571;-87
2022/03/09 06:58:27;;;;;;;14.40;9.10;;;;;;;;;;5029424;28;20938;-87
2022/03/09 07:01:36;;;;;;;18.30;9.47;;;;;;;;;;5029911;28;20543;-87
2022/03/09 07:04:40;;;;;;;20.83;10.77;;;;;;;;;;5019792;28;20539;-85
2022/03/09 07:08:10;;;;;;;15.97;9.37;;;;;;;;;;5019928;28;20590;-86
2022/03/09 07:11:14;;;;;;;11.07;8.13;;;;;;;;;;5013537;28;20535;-86
2022/03/09 07:14:21;;;;;;;17.43;8.17;;;;;;;;;;5013551;28;20548;-87
2022/03/09 07:17:27;;;;;;;12.67;8.43;;;;;;;;;;5029745;28;21223;-85
2022/03/09 07:20:31;;;;;;;13.23;8.60;;;;;;;;;;5035037;28;21219;-85
2022/03/09 07:23:36;;;;;;;12.77;8.57;;;;;;;;;;5021737;28;20598;-86
2022/03/09 07:26:41;;;;;;;12.00;8.47;;;;;;;;;;5022478;28;20539;-86
2022/03/09 07:29:49;;;;;;;14.63;7.73;;;;;;;;;;5033110;28;20622;-86
2022/03/09 07:32:57;;;;;;;13.70;8.80;;;;;;;;;;5033051;28;20595;-86
2022/03/09 07:36:04;;;;;;;12.37;7.07;;;;;;;;;;5015722;28;20627;-85
2022/03/09 07:39:59;;;;;;;13.57;8.70;;;;;;;;;;5049162;28;20654;-87
2022/03/09 07:43:05;;;;;;;14.90;8.83;;;;;;;;;;5021752;28;20547;-87
2022/03/09 07:47:03;;;;;;;29.10;17.17;;;;;;;;;;5036144;28;20606;-88
2022/03/09 07:50:12;;;;;;;25.40;14.27;;;;;;;;;;5033598;28;20670;-87
2022/03/09 07:53:19;;;;;;;115.43;46.63;;;;;;;;;;5021296;28;20663;-86
2022/03/09 07:56:25;;;;;;;21.93;12.07;;;;;;;;;;5033736;28;20213;-86
2022/03/09 07:59:30;;;;;;;16.93;8.80;;;;;;;;;;5043699;28;20220;-87
2022/03/09 08:02:35;;;;;;;13.70;8.03;;;;;;;;;;5020373;28;20188;-87
2022/03/09 08:05:44;;;;;;;10.63;6.80;;;;;;;;;;5043890;28;20180;-87
2022/03/09 08:08:50;;;;;;;10.10;6.07;;;;;;;;;;5022601;28;20184;-86
2022/03/09 08:11:54;;;;;;;6.83;5.43;;;;;;;;;;5032055;28;20188;-86
2022/03/09 08:15:00;;;;;;;8.70;6.07;;;;;;;;;;5020854;28;20176;-86
2022/03/09 08:18:08;;;;;;;9.37;6.20;;;;;;;;;;5034107;28;20544;-86
2022/03/09 08:21:13;;;;;;;9.13;6.13;;;;;;;;;;5031637;28;20555;-87
2022/03/09 08:24:17;;;;;;;10.00;6.20;;;;;;;;;;5020709;28;20535;-86
2022/03/09 08:27:21;;;;;;;9.63;5.63;;;;;;;;;;5008303;28;20185;-86
2022/03/09 08:30:25;;;;;;;7.80;5.60;;;;;;;;;;5020932;28;20215;-86
2022/03/09 08:33:29;;;;;;;7.73;5.10;;;;;;;;;;5020286;28;20192;-86
2022/03/09 08:36:34;;;;;;;7.07;5.40;;;;;;;;;;5020603;28;20187;-86
2022/03/09 08:39:38;;;;;;;9.60;4.83;;;;;;;;;;5031633;28;20220;-85
2022/03/09 08:42:42;;;;;;;8.10;5.20;;;;;;;;;;5007847;28;20211;-85
2022/03/09 08:45:46;;;;;;;6.63;4.70;;;;;;;;;;5021018;28;20191;-86
2022/03/09 08:48:50;;;;;;;8.30;4.97;;;;;;;;;;5019943;28;20196;-86
2022/03/09 08:51:54;;;;;;;5.93;4.63;;;;;;;;;;5021989;28;20195;-85
2022/03/09 08:54:59;;;;;;;7.53;4.93;;;;;;;;;;5021308;28;20200;-86
2022/03/09 08:58:04;;;;;;;6.73;5.27;;;;;;;;;;5021063;28;20211;-86
2022/03/09 09:01:08;;;;;;;5.67;4.53;;;;;;;;;;5031169;28;20223;-87
2022/03/09 09:04:14;;;;;;;7.03;4.90;;;;;;;;;;5043073;28;20619;-87
2022/03/09 09:07:18;;;;;;;6.27;4.47;;;;;;;;;;5020369;28;20177;-86
2022/03/09 09:10:22;;;;;;;6.43;4.13;;;;;;;;;;5031059;28;20212;-86
2022/03/09 09:13:26;;;;;;;6.20;4.37;;;;;;;;;;5019119;28;20192;-86
2022/03/09 09:16:30;;;;;;;21.00;5.50;;;;;;;;;;5031348;28;20201;-86
2022/03/09 09:19:35;;;;;;;5.30;4.50;;;;;;;;;;5010894;28;20725;-86
2022/03/09 09:22:42;;;;;;;13.37;4.50;;;;;;;;;;5031525;28;20551;-86
2022/03/09 09:25:47;;;;;;;5.83;4.07;;;;;;;;;;5032024;28;20193;-85
2022/03/09 09:28:51;;;;;;;4.67;3.87;;;;;;;;;;5030192;28;20192;-86
2022/03/09 09:31:56;;;;;;;5.97;4.33;;;;;;;;;;5019176;28;20635;-86
2022/03/09 09:35:01;;;;;;;6.60;4.50;;;;;;;;;;5032873;28;20200;-86
2022/03/09 09:38:08;;;;;;;8.90;5.00;;;;;;;;;;5030620;28;20211;-86
2022/03/09 09:41:16;;;;;;;19.17;5.53;;;;;;;;;;5028676;28;20203;-86
2022/03/09 09:44:23;;;;;;;8.07;5.03;;;;;;;;;;5034761;28;20184;-86
2022/03/09 09:47:28;;;;;;;8.13;4.93;;;;;;;;;;5010677;28;20181;-86
2022/03/09 09:50:32;;;;;;;7.37;4.93;;;;;;;;;;5029778;28;20223;-86
2022/03/09 09:53:41;;;;;;;8.73;5.30;;;;;;;;;;5017838;28;20551;-87
2022/03/09 09:56:45;;;;;;;6.07;4.60;;;;;;;;;;5011997;28;20184;-86
2022/03/09 09:59:52;;;;;;;8.20;5.27;;;;;;;;;;5030472;28;20691;-87
2022/03/09 10:02:56;;;;;;;6.77;4.63;;;;;;;;;;5029975;28;20188;-86
2022/03/09 10:06:01;;;;;;;8.93;4.53;;;;;;;;;;4999449;28;20173;-86
2022/03/09 10:09:07;;;;;;;6.07;4.63;;;;;;;;;;5010073;28;20635;-86
2022/03/09 10:12:13;;;;;;;6.73;4.90;;;;;;;;;;4999072;28;20639;-86
2022/03/09 10:15:18;;;;;;;6.33;4.53;;;;;;;;;;5010364;28;20200;-87
2022/03/09 10:18:23;;;;;;;7.90;5.23;;;;;;;;;;5021650;28;20216;-87
2022/03/09 10:21:35;;;;;;;7.40;4.90;;;;;;;;;;5021465;28;20517;-86
2022/03/09 10:24:44;;;;;;;7.80;5.00;;;;;;;;;;5010306;28;20193;-86
2022/03/09 10:27:53;;;;;;;7.37;5.33;;;;;;;;;;5010049;28;20225;-86
2022/03/09 10:30:58;;;;;;;8.37;5.40;;;;;;;;;;4999081;28;20217;-87
2022/03/09 10:34:06;;;;;;;7.90;5.17;;;;;;;;;;5010210;28;20200;-86
2022/03/09 10:37:10;;;;;;;8.63;5.43;;;;;;;;;;5010464;28;20185;-86
2022/03/09 10:40:19;;;;;;;7.33;5.30;;;;;;;;;;5009745;28;20208;-86
2022/03/09 10:43:29;;;;;;;8.90;5.43;;;;;;;;;;5013922;28;20188;-86
2022/03/09 10:46:45;;;;;;;8.37;5.10;;;;;;;;;;5003105;28;20544;-86
2022/03/09 10:49:51;;;;;;;9.27;5.30;;;;;;;;;;5013370;28;20216;-84
2022/03/09 10:53:03;;;;;;;7.20;5.63;;;;;;;;;;5014526;28;20201;-84
2022/03/09 10:56:19;;;;;;;7.53;5.40;;;;;;;;;;5002666;28;20532;-84
2022/03/09 10:59:24;;;;;;;7.63;5.50;;;;;;;;;;5013233;28;20216;-84
2022/03/09 11:02:31;;;;;;;10.50;4.97;;;;;;;;;;5013755;28;20180;-84
2022/03/09 11:05:36;;;;;;;8.60;5.93;;;;;;;;;;5013741;28;20181;-84
2022/03/09 11:08:43;;;;;;;8.53;5.27;;;;;;;;;;5013336;28;20229;-84
2022/03/09 11:11:49;;;;;;;6.57;4.80;;;;;;;;;;5013624;28;20644;-84
2022/03/09 11:14:53;;;;;;;8.10;5.20;;;;;;;;;;5002383;28;20660;-84
2022/03/09 11:17:58;;;;;;;5.80;4.80;;;;;;;;;;5024794;28;20197;-85
2022/03/09 11:21:08;;;;;;;7.20;4.80;;;;;;;;;;5013515;28;20221;-85
2022/03/09 11:24:15;;;;;;;5.83;4.80;;;;;;;;;;5013743;28;20185;-85
2022/03/09 11:27:20;;;;;;;7.60;5.43;;;;;;;;;;5013291;28;20173;-85
2022/03/09 11:30:30;;;;;;;6.17;5.07;;;;;;;;;;5024383;28;20217;-85
2022/03/09 11:33:40;;;;;;;8.20;5.20;;;;;;;;;;5012945;28;20181;-84
2022/03/09 11:36:56;;;;;;;6.33;5.27;;;;;;;;;;5013096;28;20185;-84
2022/03/09 11:40:06;;;;;;;8.57;4.80;;;;;;;;;;5002042;28;20208;-84
2022/03/09 11:43:27;;;;;;;6.03;4.27;;;;;;;;;;5012692;28;20664;-85
2022/03/09 11:46:58;;;;;;;7.47;5.40;;;;;;;;;;5001873;28;20181;-85
2022/03/09 11:50:07;;;;;;;8.40;5.70;;;;;;;;;;5012414;28;20221;-85
2022/03/09 11:53:11;;;;;;;6.33;4.70;;;;;;;;;;5012168;28;20173;-85
2022/03/09 11:56:38;;;;;;;8.70;4.83;;;;;;;;;;5023733;28;20181;-85
2022/03/09 12:00:20;;;;;;;5.13;3.90;;;;;;;;;;5024091;28;20213;-84
2022/03/09 12:03:38;;;;;;;5.60;4.33;;;;;;;;;;5001190;28;20177;-85
2022/03/09 12:06:43;;;;;;;7.73;4.77;;;;;;;;;;5012775;28;20186;-85
2022/03/09 12:09:59;;;;;;;7.03;4.70;;;;;;;;;;5023761;28;20232;-85
2022/03/09 12:13:27;;;;;;;8.57;5.10;;;;;;;;;;5012466;28;20204;-85
2022/03/09 12:16:31;;;;;;;7.20;4.80;;;;;;;;;;5001482;28;20181;-85
2022/03/09 12:19:36;;;;;;;7.80;4.70;;;;;;;;;;5012187;28;20212;-85
2022/03/09 12:22:56;;;;;;;5.70;4.37;;;;;;;;;;5012139;28;20201;-88
2022/03/09 12:26:01;;;;;;;6.17;3.83;;;;;;;;;;5023472;28;20189;-84
2022/03/09 12:29:28;;;;;;;5.83;4.20;;;;;;;;;;5001199;28;20240;-84
2022/03/09 12:32:41;;;;;;;5.67;4.27;;;;;;;;;;5029374;28;20185;-84
2022/03/09 12:35:45;;;;;;;6.30;4.50;;;;;;;;;;5012263;28;20640;-84
2022/03/09 12:38:55;;;;;;;4.73;3.80;;;;;;;;;;5012313;28;20173;-85
2022/03/09 12:42:01;;;;;;;5.87;3.70;;;;;;;;;;5023426;28;20189;-84
2022/03/09 12:45:06;;;;;;;5.27;4.03;;;;;;;;;;5001348;28;20185;-84
2022/03/09 12:48:17;;;;;;;5.13;3.70;;;;;;;;;;5011559;28;20636;-84
2022/03/09 12:51:21;;;;;;;6.93;3.93;;;;;;;;;;5035332;28;20201;-85
2022/03/09 12:54:34;;;;;;;5.60;3.83;;;;;;;;;;5023571;28;20177;-84
2022/03/09 12:57:40;;;;;;;5.43;4.20;;;;;;;;;;5000740;28;20181;-84
2022/03/09 13:00:48;;;;;;;4.70;4.07;;;;;;;;;;5011505;28;20683;-84
2022/03/09 13:04:02;;;;;;;4.83;3.70;;;;;;;;;;5000211;28;20177;-84
2022/03/09 13:07:15;;;;;;;3.47;3.17;;;;;;;;;;5001120;28;20185;-85
2022/03/09 13:10:20;;;;;;;4.20;3.27;;;;;;;;;;5012291;28;20568;-83
2022/03/09 13:13:56;;;;;;;4.43;3.40;;;;;;;;;;5036835;28;20648;-84
2022/03/09 13:17:03;;;;;;;4.33;3.40;;;;;;;;;;5013789;28;20181;-85
2022/03/09 13:20:10;;;;;;;5.70;4.40;;;;;;;;;;5024595;28;20205;-86
2022/03/09 13:23:33;;;;;;;5.17;4.27;;;;;;;;;;5002030;28;20181;-86
2022/03/09 13:26:49;;;;;;;3.73;3.33;;;;;;;;;;5022603;28;20493;-85
2022/03/09 13:29:53;;;;;;;39.30;6.20;;;;;;;;;;5000377;28;20232;-85
2022/03/09 13:33:18;;;;;;;6.83;4.10;;;;;;;;;;5011270;28;20184;-85
2022/03/09 13:36:25;;;;;;;4.40;4.00;;;;;;;;;;5011269;28;20181;-85
2022/03/09 13:39:39;;;;;;;4.17;3.63;;;;;;;;;;5022479;28;20209;-85
2022/03/09 13:42:44;;;;;;;6.97;4.07;;;;;;;;;;5010970;28;20189;-85
2022/03/09 13:45:49;;;;;;;5.57;3.53;;;;;;;;;;5011810;28;20177;-84
2022/03/09 13:49:14;;;;;;;5.97;3.80;;;;;;;;;;5011042;28;20233;-85
2022/03/09 13:52:33;;;;;;;4.13;3.73;;;;;;;;;;4999426;28;20181;-85
2022/03/09 13:55:44;;;;;;;4.47;3.53;;;;;;;;;;5010579;28;20200;-85
2022/03/09 13:58:51;;;;;;;5.30;3.67;;;;;;;;;;5021891;28;20178;-84
2022/03/09 14:01:55;;;;;;;5.40;3.60;;;;;;;;;;4999378;28;20196;-84
2022/03/09 14:05:00;;;;;;;3.57;2.87;;;;;;;;;;5010786;28;20185;-84
2022/03/09 14:08:06;;;;;;;4.63;3.47;;;;;;;;;;5010822;28;20185;-85
2022/03/09 14:11:15;;;;;;;6.27;3.20;;;;;;;;;;5010104;28;20691;-83
2022/03/09 14:14:21;;;;;;;4.03;2.83;;;;;;;;;;5010579;28;20189;-83
2022/03/09 14:17:25;;;;;;;4.33;3.07;;;;;;;;;;5010207;28;20177;-84
2022/03/09 14:20:30;;;;;;;3.30;2.50;;;;;;;;;;5010124;28;20216;-84
2022/03/09 14:23:34;;;;;;;2.83;2.50;;;;;;;;;;5000901;28;20184;-83
2022/03/09 14:26:43;;;;;;;3.60;2.63;;;;;;;;;;5011543;28;20200;-83
2022/03/09 14:29:47;;;;;;;5.17;3.50;;;;;;;;;;5011516;28;20224;-82
2022/03/09 14:32:52;;;;;;;3.80;2.80;;;;;;;;;;5011905;28;20177;-82
2022/03/09 14:35:58;;;;;;;4.03;3.33;;;;;;;;;;5011616;28;20173;-83
2022/03/09 14:39:03;;;;;;;5.37;3.17;;;;;;;;;;5010879;28;20169;-83
2022/03/09 14:42:07;;;;;;;4.00;2.53;;;;;;;;;;5011042;28;20185;-83
2022/03/09 14:45:14;;;;;;;2.63;2.30;;;;;;;;;;5011482;28;20180;-83
2022/03/09 14:48:20;;;;;;;5.13;3.10;;;;;;;;;;5011550;28;20176;-83
2022/03/09 14:51:25;;;;;;;5.20;2.90;;;;;;;;;;5024099;28;20647;-83
2022/03/09 14:54:29;;;;;;;3.37;2.57;;;;;;;;;;5011455;28;20177;-83
2022/03/09 14:57:37;;;;;;;7.80;2.93;;;;;;;;;;5011664;28;20647;-84
2022/03/09 15:00:42;;;;;;;5.80;2.80;;;;;;;;;;5009922;28;20212;-84
2022/03/09 15:03:46;;;;;;;3.70;2.80;;;;;;;;;;5010073;28;20185;-84
2022/03/09 15:06:50;;;;;;;4.50;3.03;;;;;;;;;;5024586;28;20181;-82
2022/03/09 15:09:54;;;;;;;3.20;2.90;;;;;;;;;;5012391;28;20232;-83
2022/03/09 15:12:58;;;;;;;10.07;3.23;;;;;;;;;;5011730;28;20205;-83
2022/03/09 15:16:04;;;;;;;4.67;3.90;;;;;;;;;;5012304;28;20180;-83
2022/03/09 15:19:08;;;;;;;9.83;3.60;;;;;;;;;;5012235;28;20255;-83
2022/03/09 15:22:12;;;;;;;19.17;4.00;;;;;;;;;;5024002;28;20181;-83
2022/03/09 15:25:17;;;;;;;3.23;2.93;;;;;;;;;;5013397;28;20173;-83
2022/03/09 15:28:21;;;;;;;6.93;3.33;;;;;;;;;;5013950;28;20176;-83
2022/03/09 15:31:26;;;;;;;5.83;3.77;;;;;;;;;;5027192;28;20173;-83
2022/03/09 15:34:29;;;;;;;7.77;4.20;;;;;;;;;;5015966;28;20192;-83
2022/03/09 15:37:35;;;;;;;6.90;4.63;;;;;;;;;;5013767;28;20204;-85
2022/03/09 15:40:39;;;;;;;7.60;4.30;;;;;;;;;;5013604;28;20204;-88
2022/03/09 15:43:43;;;;;;;12.33;4.37;;;;;;;;;;5024363;28;20559;-87
2022/03/09 15:46:48;;;;;;;8.57;6.30;;;;;;;;;;5013459;28;20204;-86
2022/03/09 15:49:52;;;;;;;6.80;4.60;;;;;;;;;;5024296;28;20569;-87
2022/03/09 15:52:58;;;;;;;6.50;3.97;;;;;;;;;;5014260;28;20176;-87
2022/03/09 15:56:02;;;;;;;5.40;4.40;;;;;;;;;;5015655;28;20181;-87
2022/03/09 15:59:06;;;;;;;6.30;4.17;;;;;;;;;;5016274;28;20572;-87
2022/03/09 16:02:10;;;;;;;7.77;4.20;;;;;;;;;;5015696;28;20173;-87
2022/03/09 16:05:17;;;;;;;5.43;4.20;;;;;;;;;;5015817;28;20181;-87
2022/03/09 16:08:22;;;;;;;10.23;5.20;;;;;;;;;;5015891;28;20181;-87
2022/03/09 16:11:26;;;;;;;16.13;5.60;;;;;;;;;;5026717;28;20198;-87
2022/03/09 16:14:33;;;;;;;6.97;4.33;;;;;;;;;;5016128;28;20193;-87
2022/03/09 16:17:39;;;;;;;6.13;4.40;;;;;;;;;;5004197;28;20185;-88
2022/03/09 16:20:44;;;;;;;9.13;5.07;;;;;;;;;;5014793;28;20204;-88
2022/03/09 16:23:51;;;;;;;6.63;3.50;;;;;;;;;;5005900;28;20181;-88
2022/03/09 16:27:00;;;;;;;6.27;4.50;;;;;;;;;;5014495;28;20185;-88
2022/03/09 16:30:10;;;;;;;5.80;4.47;;;;;;;;;;5014854;28;20220;-88
2022/03/09 16:33:16;;;;;;;8.57;4.70;;;;;;;;;;5003730;28;20177;-87
2022/03/09 16:36:23;;;;;;;11.63;5.20;;;;;;;;;;5023865;28;20200;-87
2022/03/09 16:39:32;;;;;;;10.10;5.93;;;;;;;;;;5013283;28;20220;-87
2022/03/09 16:42:38;;;;;;;8.90;6.73;;;;;;;;;;5012808;28;20181;-88
2022/03/09 16:46:11;;;;;;;9.20;4.90;;;;;;;;;;5004415;28;20185;-87
2022/03/09 16:49:15;;;;;;;10.63;4.90;;;;;;;;;;5011996;28;20217;-87
2022/03/09 16:52:21;;;;;;;8.27;4.80;;;;;;;;;;5023894;28;20628;-87
2022/03/09 16:55:26;;;;;;;7.13;4.57;;;;;;;;;;5001042;28;20197;-87
2022/03/09 16:58:30;;;;;;;4.70;3.90;;;;;;;;;;5012413;28;20181;-86
2022/03/09 17:01:47;;;;;;;6.17;4.80;;;;;;;;;;5011949;28;20580;-86
2022/03/09 17:04:51;;;;;;;5.43;4.20;;;;;;;;;;5002198;28;20189;-86
2022/03/09 17:07:55;;;;;;;12.40;4.67;;;;;;;;;;5023025;28;20209;-86
2022/03/09 17:11:02;;;;;;;5.90;4.43;;;;;;;;;;5011699;28;20225;-86
2022/03/09 17:14:09;;;;;;;25.93;5.50;;;;;;;;;;5000962;28;20177;-86
2022/03/09 17:17:17;;;;;;;6.00;4.10;;;;;;;;;;5000941;28;20180;-86
2022/03/09 17:20:24;;;;;;;9.17;4.40;;;;;;;;;;5011532;28;20212;-86
2022/03/09 17:23:32;;;;;;;6.13;4.33;;;;;;;;;;5011653;28;20185;-85
2022/03/09 17:26:38;;;;;;;8.30;4.90;;;;;;;;;;5011220;28;20521;-84
2022/03/09 17:29:44;;;;;;;9.07;4.33;;;;;;;;;;5010734;28;20680;-85
2022/03/09 17:32:51;;;;;;;6.10;3.93;;;;;;;;;;5011802;28;20180;-85
2022/03/09 17:35:56;;;;;;;5.17;4.37;;;;;;;;;;5010976;28;20189;-85
2022/03/09 17:39:04;;;;;;;9.37;4.37;;;;;;;;;;5010685;28;20180;-85
2022/03/09 17:42:10;;;;;;;6.83;4.73;;;;;;;;;;5022103;28;20177;-85
2022/03/09 17:45:14;;;;;;;6.60;4.30;;;;;;;;;;5011038;28;20509;-85
2022/03/09 17:48:22;;;;;;;6.73;4.87;;;;;;;;;;5010791;28;20185;-85
2022/03/09 17:51:26;;;;;;;8.80;4.50;;;;;;;;;;4999205;28;20228;-85
2022/03/09 17:54:31;;;;;;;7.93;4.60;;;;;;;;;;5021995;28;20639;-85
2022/03/09 17:57:37;;;;;;;6.83;4.27;;;;;;;;;;5021873;28;20188;-85
2022/03/09 18:00:41;;;;;;;7.97;4.80;;;;;;;;;;4999104;28;20212;-85
2022/03/09 18:03:46;;;;;;;6.43;4.63;;;;;;;;;;5010631;28;20189;-85
2022/03/09 18:06:50;;;;;;;7.30;4.57;;;;;;;;;;5022163;28;20623;-85
2022/03/09 18:09:55;;;;;;;8.40;5.33;;;;;;;;;;5021600;28;20220;-85
2022/03/09 18:13:00;;;;;;;8.40;5.20;;;;;;;;;;5021815;28;20189;-85
2022/03/09 18:16:05;;;;;;;7.57;4.87;;;;;;;;;;5021506;28;20193;-85
2022/03/09 18:19:09;;;;;;;12.03;4.97;;;;;;;;;;5010418;28;20217;-85
2022/03/09 18:22:13;;;;;;;7.73;5.10;;;;;;;;;;5011148;28;20173;-86
2022/03/09 18:25:18;;;;;;;10.30;5.63;;;;;;;;;;5011136;28;20181;-86
2022/03/09 18:28:23;;;;;;;7.60;5.87;;;;;;;;;;5015215;28;20184;-85
2022/03/09 18:31:31;;;;;;;10.47;5.70;;;;;;;;;;5012282;28;20213;-84
2022/03/09 18:34:36;;;;;;;8.57;5.00;;;;;;;;;;5013523;28;20184;-84
2022/03/09 18:37:43;;;;;;;7.67;5.40;;;;;;;;;;5012721;28;20176;-85
2022/03/09 18:40:47;;;;;;;13.27;5.93;;;;;;;;;;4999176;28;20212;-86
2022/03/09 18:43:52;;;;;;;13.83;5.90;;;;;;;;;;5010440;28;20185;-85